Current Conditions
Snow Grains



Pressure
1019.92 (hPa) - 30.12 (inHG)
Visibility

3.3 (km) - 2.1 (miles)
   Temperature
0  °C
32°F
-1  °C
Dewpoint
93  %
 Humidity
   Wind Speed
19  km/h
10  kts
12  mph
5.4  m/s
   Wind Direction
 70°
East North
East
   Airport Data
EHLW
Location Leeuwarden Air Base 10 km (6.22 mi)
Metar :EHLW 040855Z AUTO 07010KT 340V120 3300 -SGSN FEW007 BKN008 BKN010 00/M01 Q1020 YLO
Sun 4th December 09:55 am
   Raw Metar Info
Raw METAR is the most common format in the world for the transmission of observational weather data. It is highly standardized through the International Civil Aviation Organization (ICAO), which allows it to be understood throughout most of the world.
   API Info
Data Provided by
https://www.checkwx.com/weather/EHLW
   © Info
CSS/SVG/PHP scripts were developed by weather34.com for use in the weather34 template © 2015-2022

Guide Info provided by Metar-Wikipedia